Nearby METAR Reports

 

KPMD - Palmdale, California, USA
Distance from station: NNE 12mi, 19km
Updated: Tue, 20-Aug-2019 6:53am PDT
Clear
Clear
 Wind from calm
Wind: Calm
Temperature: 70°F , 21°C
Dew Point: 41°F , 5°C
Humidity: 35%
Barometer: 30.00 inHg , 1015.9 hPa
Clouds: Clear
Visibility: 10 miles , 16 km
2019/08/20 13:53 KPMD 201353Z AUTO 00000KT 10SM CLR 21/05 A3000 RMK AO2 SLP129 T02060050
KWJF - Lancaster/Fox, California, USA
Distance from station: N 17mi, 27km
Updated: Tue, 20-Aug-2019 6:56am PDT
Clear
Clear
 Wind from W
Wind: W 3 mph , 6 km/h
Temperature: 68°F , 20°C
Dew Point: 45°F , 7°C
Humidity: 43%
Barometer: 29.99 inHg , 1015.6 hPa
Clouds: Clear
Visibility: 10 miles , 16 km
2019/08/20 13:56 KWJF 201356Z 27003KT 10SM CLR 20/07 A2999 RMK AO2 SLP136 T02000067
 
KMWS - Mount Wilson, California, USA
Distance from station: SSE 18mi, 30km
Updated: Wed, 13-May-2015 6:45am PDT
NOT Current

 Wind from S
Wind: S 3 mph , 6 km/h, Gust: 5 mph , 7 km/h
Temperature: 43°F , 6°C
Dew Point: -0°F , -18°C
Humidity: 16%
2015/05/13 13:45 KMWS 131345Z 18003G04KT 06/M18 RMK SNOW DEPTH 1.00
KWHP - La / Whiteman, California, USA
Distance from station: SW 21mi, 34km
Updated: Mon, 19-Aug-2019 7:50pm PDT
NOT Current
Clear
Clear
 Wind from ESE
Wind: ESE 5 mph , 7 km/h
Temperature: 77°F , 25°C
Dew Point: 57°F , 14°C
Humidity: 51%
Barometer: 29.92 inHg , 1013.2 hPa
Clouds: Clear
Visibility: 10 miles , 16 km
2019/08/20 02:50 KWHP 200250Z 12004KT 10SM SKC 25/14 A2992
 
KBUR - Burbank, California, USA
Distance from station: SSW 22mi, 35km
Updated: Tue, 20-Aug-2019 6:53am PDT
Clear
Clear
 Wind from calm
Wind: Calm
Temperature: 63°F , 17°C
Dew Point: 57°F , 14°C
Humidity: 83%
Barometer: 29.95 inHg , 1014.2 hPa
Clouds: Clear
Visibility: 10 miles , 16 km
2019/08/20 13:53 KBUR 201353Z 00000KT 10SM CLR 17/14 A2995 RMK AO2 SLP128 T01720139 $
KVNY - Van Nuys, California, USA
Distance from station: SW 25mi, 40km
Updated: Tue, 20-Aug-2019 6:51am PDT
Clear
Clear
 Wind from calm
Wind: Calm
Temperature: 64°F , 18°C
Dew Point: 57°F , 14°C
Humidity: 78%
Barometer: 29.95 inHg , 1014.2 hPa
Clouds: Clear
Visibility: 10 miles , 16 km
2019/08/20 13:51 KVNY 201351Z 00000KT 10SM CLR 18/14 A2995 RMK AO2 SLP131 T01830139
 
KEDW - Edwards Afb, California, USA
Distance from station: NNE 33mi, 53km
Updated: Tue, 20-Aug-2019 6:58am PDT
Clear
Clear
 Wind from S
Wind: S 7 mph , 11 km/h
Temperature: 66°F , 19°C
Dew Point: 39°F , 4°C
Humidity: 37%
Barometer: 29.96 inHg , 1014.6 hPa
Clouds: Clear
Visibility: 90 miles , 144 km
2019/08/20 13:58 KEDW 201358Z 19006KT 90SM CLR 19/04 A2996 RMK AO2A SLP123 T01890043
KSMO - Santa Monica, California, USA
Distance from station: SSW 35mi, 57km
Updated: Tue, 20-Aug-2019 6:51am PDT
Clear
Clear
 Wind from calm
Wind: Calm
Temperature: 63°F , 17°C
Dew Point: 61°F , 16°C
Humidity: 94%
Barometer: 29.94 inHg , 1013.9 hPa
Clouds: Clear
Visibility: 10 miles , 16 km
2019/08/20 13:51 KSMO 201351Z 00000KT 10SM CLR 17/16 A2994 RMK AO2 SLP138 T01720156
 
KLAX - Los Angeles, California, USA
Distance from station: SSW 39mi, 63km
Updated: Tue, 20-Aug-2019 6:53am PDT
Partly cloudy
Partly cloudy
 Wind from ESE
Wind: ESE 3 mph , 6 km/h
Temperature: 66°F , 19°C
Dew Point: 63°F , 17°C
Humidity: 88%
Barometer: 29.94 inHg , 1013.9 hPa
Clouds: Partly cloudy
Visibility: 10 miles , 16 km
Cloud details: Few Clouds 900 ft
Few Clouds 1200 ft
Partly cloudy 25000 ft
2019/08/20 13:53 KLAX 201353Z 11003KT 10SM FEW009 FEW012 SCT250 19/17 A2994 RMK AO2 SLP138 T01940172
KMHV - Mojave, California, USA
Distance from station: N 41mi, 66km
Updated: Tue, 20-Aug-2019 7:20am PDT
Clear
Clear
 Wind from calm
Wind: Calm
Temperature: 72°F , 22°C
Dew Point: 39°F , 4°C
Humidity: 31%
Barometer: 30.00 inHg , 1015.9 hPa
Clouds: Clear
Visibility: 8 miles , 13 km
2019/08/20 14:20 KMHV 201420Z AUTO 00000KT 8SM CLR 22/04 A3000 RMK A01
 
KFUL - Fullerton, California, USA
Distance from station: SSE 44mi, 70km
Updated: Tue, 20-Aug-2019 6:53am PDT
Few Clouds
Few Clouds
 Wind from E
Wind: E 5 mph , 7 km/h
Temperature: 64°F , 18°C
Dew Point: 57°F , 14°C
Humidity: 78%
Barometer: 29.94 inHg , 1013.9 hPa
Clouds: Few Clouds
Visibility: 10 miles , 16 km
Cloud details: Few Clouds 1000 ft
2019/08/20 13:53 KFUL 201353Z 09004KT 10SM FEW010 18/14 A2994 RMK AO2 SLP137 T01780139
KONT - Ontario, California, USA
Distance from station: SE 45mi, 72km
Updated: Tue, 20-Aug-2019 6:53am PDT
Clear
Clear
 Wind from calm
Wind: Calm
Temperature: 66°F , 19°C
Dew Point: 59°F , 15°C
Humidity: 78%
Barometer: 29.96 inHg , 1014.6 hPa
Clouds: Clear
Visibility: 10 miles , 16 km
2019/08/20 13:53 KONT 201353Z 00000KT 10SM CLR 19/15 A2996 RMK AO2 SLP129 T01890150
 
KLGB - Long Beach, California, USA
Distance from station: S 46mi, 74km
Updated: Tue, 20-Aug-2019 6:53am PDT
Clear
Clear
 Wind from E
Wind: E 3 mph , 6 km/h
Temperature: 64°F , 18°C
Dew Point: 59°F , 15°C
Humidity: 83%
Barometer: 29.94 inHg , 1013.9 hPa
Clouds: Clear
Visibility: 8 miles , 13 km
2019/08/20 13:53 KLGB 201353Z 09003KT 8SM CLR 18/15 A2994 RMK AO2 SLP139 T01830150
KVCV - Victorville, California, USA
Distance from station: E 46mi, 74km
Updated: Tue, 20-Aug-2019 7:45am PDT
Clear
Clear
 Wind from calm
Wind: Calm
Barometer: 30.02 inHg , 1016.6 hPa
Clouds: Clear
Visibility: 10 miles , 16 km
2019/08/20 14:45 KVCV 201445Z 00000KT 10SM SKC A3002
 
KTSP - Tehachapi, California, USA
Distance from station: NNW 48mi, 77km
Updated: Tue, 20-Aug-2019 7:35am PDT
Clear
Clear
 Wind from calm
Wind: Calm
Temperature: 57°F , 14°C
Dew Point: 43°F , 6°C
Humidity: 59%
Barometer: 30.11 inHg , 1019.6 hPa
Clouds: Clear
Visibility: 9 miles , 14 km
2019/08/20 14:35 KTSP 201435Z AUTO 00000KT 9SM CLR 14/06 A3011 RMK AO2